sensor_id;sensor_type;location;lat;lon;timestamp;P1;durP1;ratioP1;P2;durP2;ratioP2
81834;SDS011;71272;52.166;4.498;2023-07-20T00:01:11;4.07;;;1.30;;
81834;SDS011;71272;52.166;4.498;2023-07-20T00:03:37;5.60;;;1.83;;
81834;SDS011;71272;52.166;4.498;2023-07-20T00:06:02;4.93;;;1.87;;
81834;SDS011;71272;52.166;4.498;2023-07-20T00:08:29;4.20;;;1.70;;
81834;SDS011;71272;52.166;4.498;2023-07-20T00:10:55;3.25;;;1.42;;
81834;SDS011;71272;52.166;4.498;2023-07-20T00:13:20;3.00;;;1.50;;
81834;SDS011;71272;52.166;4.498;2023-07-20T00:15:46;7.43;;;1.80;;
81834;SDS011;71272;52.166;4.498;2023-07-20T00:18:12;3.22;;;1.30;;
81834;SDS011;71272;52.166;4.498;2023-07-20T00:20:37;3.35;;;1.40;;
81834;SDS011;71272;52.166;4.498;2023-07-20T00:23:03;8.93;;;1.50;;
81834;SDS011;71272;52.166;4.498;2023-07-20T00:25:28;2.33;;;1.20;;
81834;SDS011;71272;52.166;4.498;2023-07-20T00:27:54;2.60;;;1.23;;
81834;SDS011;71272;52.166;4.498;2023-07-20T00:30:19;2.40;;;1.43;;
81834;SDS011;71272;52.166;4.498;2023-07-20T00:32:44;3.63;;;1.67;;
81834;SDS011;71272;52.166;4.498;2023-07-20T00:35:10;5.57;;;1.40;;
81834;SDS011;71272;52.166;4.498;2023-07-20T00:37:36;3.47;;;1.08;;
81834;SDS011;71272;52.166;4.498;2023-07-20T00:40:02;3.88;;;1.38;;
81834;SDS011;71272;52.166;4.498;2023-07-20T00:42:30;4.20;;;1.30;;
81834;SDS011;71272;52.166;4.498;2023-07-20T00:44:56;2.15;;;1.17;;
81834;SDS011;71272;52.166;4.498;2023-07-20T00:47:21;2.93;;;1.40;;
81834;SDS011;71272;52.166;4.498;2023-07-20T00:49:46;2.90;;;1.50;;
81834;SDS011;71272;52.166;4.498;2023-07-20T00:52:13;1.83;;;1.10;;
81834;SDS011;71272;52.166;4.498;2023-07-20T00:54:41;3.35;;;1.70;;
81834;SDS011;71272;52.166;4.498;2023-07-20T00:57:07;2.60;;;1.40;;
81834;SDS011;71272;52.166;4.498;2023-07-20T00:59:36;3.20;;;1.60;;
81834;SDS011;71272;52.166;4.498;2023-07-20T01:02:02;4.40;;;1.65;;
81834;SDS011;71272;52.166;4.498;2023-07-20T01:04:27;3.00;;;1.52;;
81834;SDS011;71272;52.166;4.498;2023-07-20T01:09:27;4.47;;;1.58;;
81834;SDS011;71272;52.166;4.498;2023-07-20T01:14:22;2.57;;;1.40;;
81834;SDS011;71272;52.166;4.498;2023-07-20T01:16:48;3.03;;;1.60;;
81834;SDS011;71272;52.166;4.498;2023-07-20T01:19:15;3.22;;;1.50;;
81834;SDS011;71272;52.166;4.498;2023-07-20T01:21:45;3.20;;;1.33;;
81834;SDS011;71272;52.166;4.498;2023-07-20T01:32:29;2.97;;;1.40;;
81834;SDS011;71272;52.166;4.498;2023-07-20T01:34:56;5.18;;;1.17;;
81834;SDS011;71272;52.166;4.498;2023-07-20T01:37:23;3.25;;;1.50;;
81834;SDS011;71272;52.166;4.498;2023-07-20T01:39:53;3.58;;;1.20;;
81834;SDS011;71272;52.166;4.498;2023-07-20T01:42:20;2.60;;;1.33;;
81834;SDS011;71272;52.166;4.498;2023-07-20T01:44:47;5.65;;;1.20;;
81834;SDS011;71272;52.166;4.498;2023-07-20T01:47:12;2.33;;;1.10;;
81834;SDS011;71272;52.166;4.498;2023-07-20T01:49:37;1.73;;;1.00;;
81834;SDS011;71272;52.166;4.498;2023-07-20T01:52:03;2.23;;;1.10;;
81834;SDS011;71272;52.166;4.498;2023-07-20T01:54:28;3.30;;;1.10;;
81834;SDS011;71272;52.166;4.498;2023-07-20T01:56:54;5.33;;;1.60;;
81834;SDS011;71272;52.166;4.498;2023-07-20T01:59:19;2.08;;;1.05;;
81834;SDS011;71272;52.166;4.498;2023-07-20T02:01:44;3.00;;;1.37;;
81834;SDS011;71272;52.166;4.498;2023-07-20T02:04:10;3.37;;;1.13;;
81834;SDS011;71272;52.166;4.498;2023-07-20T02:06:35;3.33;;;1.30;;
81834;SDS011;71272;52.166;4.498;2023-07-20T02:09:00;3.93;;;1.50;;
81834;SDS011;71272;52.166;4.498;2023-07-20T02:11:25;3.10;;;1.30;;
81834;SDS011;71272;52.166;4.498;2023-07-20T02:13:51;2.83;;;1.43;;
81834;SDS011;71272;52.166;4.498;2023-07-20T02:16:16;2.87;;;1.40;;
81834;SDS011;71272;52.166;4.498;2023-07-20T02:18:41;3.67;;;1.60;;
81834;SDS011;71272;52.166;4.498;2023-07-20T02:21:07;3.17;;;1.53;;
81834;SDS011;71272;52.166;4.498;2023-07-20T02:23:32;3.47;;;1.57;;
81834;SDS011;71272;52.166;4.498;2023-07-20T02:25:57;4.22;;;1.50;;
81834;SDS011;71272;52.166;4.498;2023-07-20T02:28:23;3.80;;;1.30;;
81834;SDS011;71272;52.166;4.498;2023-07-20T02:30:48;4.03;;;1.48;;
81834;SDS011;71272;52.166;4.498;2023-07-20T02:33:14;4.20;;;1.80;;
81834;SDS011;71272;52.166;4.498;2023-07-20T02:35:40;3.30;;;1.63;;
81834;SDS011;71272;52.166;4.498;2023-07-20T02:38:05;3.03;;;1.60;;
81834;SDS011;71272;52.166;4.498;2023-07-20T02:40:32;4.45;;;1.85;;
81834;SDS011;71272;52.166;4.498;2023-07-20T02:42:57;5.00;;;1.70;;
81834;SDS011;71272;52.166;4.498;2023-07-20T02:45:22;4.83;;;1.60;;
81834;SDS011;71272;52.166;4.498;2023-07-20T02:47:48;2.90;;;1.70;;
81834;SDS011;71272;52.166;4.498;2023-07-20T02:50:14;3.43;;;1.90;;
81834;SDS011;71272;52.166;4.498;2023-07-20T02:52:39;3.23;;;1.73;;
81834;SDS011;71272;52.166;4.498;2023-07-20T02:55:04;3.83;;;1.80;;
81834;SDS011;71272;52.166;4.498;2023-07-20T02:57:30;3.03;;;1.80;;
81834;SDS011;71272;52.166;4.498;2023-07-20T02:59:55;3.83;;;2.45;;
81834;SDS011;71272;52.166;4.498;2023-07-20T03:02:21;4.00;;;1.73;;
81834;SDS011;71272;52.166;4.498;2023-07-20T03:04:48;4.47;;;2.25;;
81834;SDS011;71272;52.166;4.498;2023-07-20T03:07:13;3.35;;;1.85;;
81834;SDS011;71272;52.166;4.498;2023-07-20T03:09:38;3.67;;;2.40;;
81834;SDS011;71272;52.166;4.498;2023-07-20T03:12:04;4.53;;;2.70;;
81834;SDS011;71272;52.166;4.498;2023-07-20T03:14:30;4.70;;;2.40;;
81834;SDS011;71272;52.166;4.498;2023-07-20T03:16:55;5.03;;;2.43;;
81834;SDS011;71272;52.166;4.498;2023-07-20T03:19:21;3.60;;;2.20;;
81834;SDS011;71272;52.166;4.498;2023-07-20T03:21:46;4.60;;;2.20;;
81834;SDS011;71272;52.166;4.498;2023-07-20T03:24:11;3.73;;;2.03;;
81834;SDS011;71272;52.166;4.498;2023-07-20T03:26:37;4.17;;;2.30;;
81834;SDS011;71272;52.166;4.498;2023-07-20T03:29:03;7.30;;;2.73;;
81834;SDS011;71272;52.166;4.498;2023-07-20T03:31:29;5.22;;;2.70;;
81834;SDS011;71272;52.166;4.498;2023-07-20T03:33:55;5.72;;;3.20;;
81834;SDS011;71272;52.166;4.498;2023-07-20T03:36:21;5.53;;;2.90;;
81834;SDS011;71272;52.166;4.498;2023-07-20T03:38:47;6.05;;;3.10;;
81834;SDS011;71272;52.166;4.498;2023-07-20T03:41:12;4.17;;;2.63;;
81834;SDS011;71272;52.166;4.498;2023-07-20T03:43:37;6.93;;;3.17;;
81834;SDS011;71272;52.166;4.498;2023-07-20T03:46:03;6.40;;;3.23;;
81834;SDS011;71272;52.166;4.498;2023-07-20T03:48:32;4.50;;;2.70;;
81834;SDS011;71272;52.166;4.498;2023-07-20T03:50:57;4.05;;;2.38;;
81834;SDS011;71272;52.166;4.498;2023-07-20T03:53:23;3.75;;;2.15;;
81834;SDS011;71272;52.166;4.498;2023-07-20T03:55:48;4.10;;;2.23;;
81834;SDS011;71272;52.166;4.498;2023-07-20T03:58:15;4.50;;;1.98;;
81834;SDS011;71272;52.166;4.498;2023-07-20T04:00:47;5.68;;;2.00;;
81834;SDS011;71272;52.166;4.498;2023-07-20T04:03:15;4.53;;;1.90;;
81834;SDS011;71272;52.166;4.498;2023-07-20T04:05:40;5.00;;;2.15;;
81834;SDS011;71272;52.166;4.498;2023-07-20T04:08:06;3.35;;;1.77;;
81834;SDS011;71272;52.166;4.498;2023-07-20T04:10:31;4.65;;;2.28;;
81834;SDS011;71272;52.166;4.498;2023-07-20T04:12:57;4.88;;;1.98;;
81834;SDS011;71272;52.166;4.498;2023-07-20T04:15:22;3.43;;;1.73;;
81834;SDS011;71272;52.166;4.498;2023-07-20T04:17:47;5.35;;;2.00;;
81834;SDS011;71272;52.166;4.498;2023-07-20T04:20:12;5.43;;;2.03;;
81834;SDS011;71272;52.166;4.498;2023-07-20T04:22:38;4.05;;;1.73;;
81834;SDS011;71272;52.166;4.498;2023-07-20T04:25:03;3.53;;;1.80;;
81834;SDS011;71272;52.166;4.498;2023-07-20T04:27:29;8.73;;;2.10;;
81834;SDS011;71272;52.166;4.498;2023-07-20T04:29:54;5.10;;;1.90;;
81834;SDS011;71272;52.166;4.498;2023-07-20T04:32:20;3.92;;;1.70;;
81834;SDS011;71272;52.166;4.498;2023-07-20T04:34:46;3.65;;;2.20;;
81834;SDS011;71272;52.166;4.498;2023-07-20T04:37:11;4.27;;;2.00;;
81834;SDS011;71272;52.166;4.498;2023-07-20T04:39:36;5.65;;;2.13;;
81834;SDS011;71272;52.166;4.498;2023-07-20T04:42:02;3.97;;;2.47;;
81834;SDS011;71272;52.166;4.498;2023-07-20T04:44:27;3.28;;;2.00;;
81834;SDS011;71272;52.166;4.498;2023-07-20T04:46:52;4.17;;;1.73;;
81834;SDS011;71272;52.166;4.498;2023-07-20T04:49:18;3.73;;;1.70;;
81834;SDS011;71272;52.166;4.498;2023-07-20T04:51:43;3.43;;;1.57;;
81834;SDS011;71272;52.166;4.498;2023-07-20T04:54:08;3.90;;;1.70;;
81834;SDS011;71272;52.166;4.498;2023-07-20T04:56:34;3.40;;;1.40;;
81834;SDS011;71272;52.166;4.498;2023-07-20T04:58:59;5.70;;;1.40;;
81834;SDS011;71272;52.166;4.498;2023-07-20T05:01:25;3.92;;;1.48;;
81834;SDS011;71272;52.166;4.498;2023-07-20T05:03:51;6.00;;;1.30;;
81834;SDS011;71272;52.166;4.498;2023-07-20T05:06:17;4.30;;;1.40;;
81834;SDS011;71272;52.166;4.498;2023-07-20T05:08:43;2.33;;;1.50;;
81834;SDS011;71272;52.166;4.498;2023-07-20T05:11:08;2.57;;;1.20;;
81834;SDS011;71272;52.166;4.498;2023-07-20T05:13:33;3.03;;;1.20;;
81834;SDS011;71272;52.166;4.498;2023-07-20T05:15:59;6.63;;;1.67;;
81834;SDS011;71272;52.166;4.498;2023-07-20T05:18:24;2.77;;;1.20;;
81834;SDS011;71272;52.166;4.498;2023-07-20T05:20:50;1.63;;;1.00;;
81834;SDS011;71272;52.166;4.498;2023-07-20T05:23:16;3.67;;;1.10;;
81834;SDS011;71272;52.166;4.498;2023-07-20T05:25:44;3.78;;;1.05;;
81834;SDS011;71272;52.166;4.498;2023-07-20T05:28:10;3.10;;;1.02;;
81834;SDS011;71272;52.166;4.498;2023-07-20T05:30:35;2.50;;;1.07;;
81834;SDS011;71272;52.166;4.498;2023-07-20T05:33:01;2.40;;;1.00;;
81834;SDS011;71272;52.166;4.498;2023-07-20T05:35:26;1.00;;;0.70;;
81834;SDS011;71272;52.166;4.498;2023-07-20T05:37:51;5.00;;;1.05;;
81834;SDS011;71272;52.166;4.498;2023-07-20T05:40:17;3.47;;;1.00;;
81834;SDS011;71272;52.166;4.498;2023-07-20T05:42:46;2.72;;;0.88;;
81834;SDS011;71272;52.166;4.498;2023-07-20T05:45:13;2.40;;;0.73;;
81834;SDS011;71272;52.166;4.498;2023-07-20T05:50:04;4.50;;;0.88;;
81834;SDS011;71272;52.166;4.498;2023-07-20T05:52:30;2.53;;;0.80;;
81834;SDS011;71272;52.166;4.498;2023-07-20T05:54:55;2.37;;;0.90;;
81834;SDS011;71272;52.166;4.498;2023-07-20T05:57:21;3.25;;;1.13;;
81834;SDS011;71272;52.166;4.498;2023-07-20T05:59:46;1.30;;;0.53;;
81834;SDS011;71272;52.166;4.498;2023-07-20T06:04:38;1.60;;;0.70;;
81834;SDS011;71272;52.166;4.498;2023-07-20T06:07:04;2.55;;;0.80;;
81834;SDS011;71272;52.166;4.498;2023-07-20T06:09:30;1.92;;;0.63;;
81834;SDS011;71272;52.166;4.498;2023-07-20T06:16:46;2.15;;;0.77;;
81834;SDS011;71272;52.166;4.498;2023-07-20T06:21:38;1.80;;;0.70;;
81834;SDS011;71272;52.166;4.498;2023-07-20T06:24:03;1.85;;;0.70;;
81834;SDS011;71272;52.166;4.498;2023-07-20T06:28:55;5.70;;;0.93;;
81834;SDS011;71272;52.166;4.498;2023-07-20T06:31:21;6.20;;;0.90;;
81834;SDS011;71272;52.166;4.498;2023-07-20T06:33:46;2.75;;;0.70;;
81834;SDS011;71272;52.166;4.498;2023-07-20T06:36:11;2.90;;;1.00;;
81834;SDS011;71272;52.166;4.498;2023-07-20T06:38:37;3.88;;;0.90;;
81834;SDS011;71272;52.166;4.498;2023-07-20T06:41:02;3.03;;;0.90;;
81834;SDS011;71272;52.166;4.498;2023-07-20T06:43:27;3.67;;;1.07;;
81834;SDS011;71272;52.166;4.498;2023-07-20T06:45:53;5.53;;;1.10;;
81834;SDS011;71272;52.166;4.498;2023-07-20T06:48:19;6.57;;;0.90;;
81834;SDS011;71272;52.166;4.498;2023-07-20T06:50:44;4.32;;;0.93;;
81834;SDS011;71272;52.166;4.498;2023-07-20T06:53:10;8.00;;;0.90;;
81834;SDS011;71272;52.166;4.498;2023-07-20T06:55:35;2.42;;;0.90;;
81834;SDS011;71272;52.166;4.498;2023-07-20T06:58:00;1.65;;;0.63;;
81834;SDS011;71272;52.166;4.498;2023-07-20T07:00:26;2.40;;;0.90;;
81834;SDS011;71272;52.166;4.498;2023-07-20T07:02:51;2.13;;;0.90;;
81834;SDS011;71272;52.166;4.498;2023-07-20T07:05:17;1.97;;;0.80;;
81834;SDS011;71272;52.166;4.498;2023-07-20T07:07:43;2.45;;;0.80;;
81834;SDS011;71272;52.166;4.498;2023-07-20T07:10:11;1.88;;;0.70;;
81834;SDS011;71272;52.166;4.498;2023-07-20T07:12:36;5.10;;;1.40;;
81834;SDS011;71272;52.166;4.498;2023-07-20T07:15:02;10.00;;;1.40;;
81834;SDS011;71272;52.166;4.498;2023-07-20T07:17:31;1.77;;;0.73;;
81834;SDS011;71272;52.166;4.498;2023-07-20T07:19:57;4.45;;;0.82;;
81834;SDS011;71272;52.166;4.498;2023-07-20T07:22:23;3.25;;;1.05;;
81834;SDS011;71272;52.166;4.498;2023-07-20T07:24:48;4.05;;;0.95;;
81834;SDS011;71272;52.166;4.498;2023-07-20T07:27:14;2.67;;;0.60;;
81834;SDS011;71272;52.166;4.498;2023-07-20T07:29:41;2.15;;;0.70;;
81834;SDS011;71272;52.166;4.498;2023-07-20T07:32:09;4.07;;;0.82;;
81834;SDS011;71272;52.166;4.498;2023-07-20T07:34:35;2.97;;;0.85;;
81834;SDS011;71272;52.166;4.498;2023-07-20T07:37:00;3.72;;;0.80;;
81834;SDS011;71272;52.166;4.498;2023-07-20T07:39:26;4.13;;;0.90;;
81834;SDS011;71272;52.166;4.498;2023-07-20T07:41:51;2.53;;;0.70;;
81834;SDS011;71272;52.166;4.498;2023-07-20T07:44:17;2.20;;;0.70;;
81834;SDS011;71272;52.166;4.498;2023-07-20T07:46:42;4.25;;;0.70;;
81834;SDS011;71272;52.166;4.498;2023-07-20T07:51:33;2.80;;;0.70;;
81834;SDS011;71272;52.166;4.498;2023-07-20T07:53:58;3.13;;;0.82;;
81834;SDS011;71272;52.166;4.498;2023-07-20T07:56:24;3.23;;;0.90;;
81834;SDS011;71272;52.166;4.498;2023-07-20T07:58:49;2.27;;;0.83;;
81834;SDS011;71272;52.166;4.498;2023-07-20T08:01:16;1.38;;;0.70;;
81834;SDS011;71272;52.166;4.498;2023-07-20T08:03:43;1.60;;;0.75;;
81834;SDS011;71272;52.166;4.498;2023-07-20T08:06:11;3.72;;;0.80;;
81834;SDS011;71272;52.166;4.498;2023-07-20T08:08:36;1.83;;;0.90;;
81834;SDS011;71272;52.166;4.498;2023-07-20T08:13:27;2.93;;;0.90;;
81834;SDS011;71272;52.166;4.498;2023-07-20T08:15:52;1.15;;;0.75;;
81834;SDS011;71272;52.166;4.498;2023-07-20T08:18:17;2.45;;;1.20;;
81834;SDS011;71272;52.166;4.498;2023-07-20T08:20:43;1.15;;;0.50;;
81834;SDS011;71272;52.166;4.498;2023-07-20T08:23:09;2.10;;;0.50;;
81834;SDS011;71272;52.166;4.498;2023-07-20T08:25:38;1.57;;;0.57;;
81834;SDS011;71272;52.166;4.498;2023-07-20T08:28:06;2.22;;;0.52;;
81834;SDS011;71272;52.166;4.498;2023-07-20T08:30:39;2.20;;;0.60;;
81834;SDS011;71272;52.166;4.498;2023-07-20T08:33:15;2.75;;;0.70;;
81834;SDS011;71272;52.166;4.498;2023-07-20T08:35:44;2.78;;;0.68;;
81834;SDS011;71272;52.166;4.498;2023-07-20T08:38:09;1.40;;;0.55;;
81834;SDS011;71272;52.166;4.498;2023-07-20T08:40:47;1.97;;;0.60;;
81834;SDS011;71272;52.166;4.498;2023-07-20T08:43:13;1.65;;;0.70;;
81834;SDS011;71272;52.166;4.498;2023-07-20T08:45:39;0.82;;;0.55;;
81834;SDS011;71272;52.166;4.498;2023-07-20T08:48:06;1.42;;;0.50;;
81834;SDS011;71272;52.166;4.498;2023-07-20T08:50:32;2.40;;;0.63;;
81834;SDS011;71272;52.166;4.498;2023-07-20T08:52:59;1.50;;;0.70;;
81834;SDS011;71272;52.166;4.498;2023-07-20T08:55:28;0.60;;;0.40;;
81834;SDS011;71272;52.166;4.498;2023-07-20T08:57:54;2.28;;;0.52;;
81834;SDS011;71272;52.166;4.498;2023-07-20T09:00:21;2.17;;;0.60;;
81834;SDS011;71272;52.166;4.498;2023-07-20T09:02:49;1.95;;;0.55;;
81834;SDS011;71272;52.166;4.498;2023-07-20T09:05:16;1.77;;;0.50;;
81834;SDS011;71272;52.166;4.498;2023-07-20T09:07:43;2.28;;;0.60;;
81834;SDS011;71272;52.166;4.498;2023-07-20T09:10:08;1.58;;;0.65;;
81834;SDS011;71272;52.166;4.498;2023-07-20T09:12:38;1.83;;;0.63;;
81834;SDS011;71272;52.166;4.498;2023-07-20T09:15:05;3.13;;;0.60;;
81834;SDS011;71272;52.166;4.498;2023-07-20T09:17:31;2.85;;;0.55;;
81834;SDS011;71272;52.166;4.498;2023-07-20T09:19:57;1.73;;;0.60;;
81834;SDS011;71272;52.166;4.498;2023-07-20T09:22:29;1.15;;;0.73;;
81834;SDS011;71272;52.166;4.498;2023-07-20T09:24:55;2.53;;;0.80;;
81834;SDS011;71272;52.166;4.498;2023-07-20T09:27:22;1.48;;;0.40;;
81834;SDS011;71272;52.166;4.498;2023-07-20T09:30:09;0.68;;;0.50;;
81834;SDS011;71272;52.166;4.498;2023-07-20T09:32:42;2.15;;;0.70;;
81834;SDS011;71272;52.166;4.498;2023-07-20T09:35:12;2.00;;;0.65;;
81834;SDS011;71272;52.166;4.498;2023-07-20T09:37:39;4.05;;;0.70;;
81834;SDS011;71272;52.166;4.498;2023-07-20T09:40:06;3.67;;;0.98;;
81834;SDS011;71272;52.166;4.498;2023-07-20T09:42:33;2.38;;;0.70;;
81834;SDS011;71272;52.166;4.498;2023-07-20T09:45:00;1.92;;;1.00;;
81834;SDS011;71272;52.166;4.498;2023-07-20T09:47:25;2.05;;;0.75;;
81834;SDS011;71272;52.166;4.498;2023-07-20T09:49:58;1.40;;;0.80;;
81834;SDS011;71272;52.166;4.498;2023-07-20T09:52:25;3.55;;;0.77;;
81834;SDS011;71272;52.166;4.498;2023-07-20T09:54:51;2.47;;;0.50;;
81834;SDS011;71272;52.166;4.498;2023-07-20T09:57:16;2.10;;;0.70;;
81834;SDS011;71272;52.166;4.498;2023-07-20T09:59:42;3.00;;;0.60;;
81834;SDS011;71272;52.166;4.498;2023-07-20T10:02:12;2.47;;;0.60;;
81834;SDS011;71272;52.166;4.498;2023-07-20T10:04:53;2.83;;;0.60;;
81834;SDS011;71272;52.166;4.498;2023-07-20T10:07:19;4.78;;;0.98;;
81834;SDS011;71272;52.166;4.498;2023-07-20T10:09:48;2.38;;;0.70;;
81834;SDS011;71272;52.166;4.498;2023-07-20T10:12:15;0.85;;;0.47;;
81834;SDS011;71272;52.166;4.498;2023-07-20T10:14:43;1.73;;;0.55;;
81834;SDS011;71272;52.166;4.498;2023-07-20T10:17:17;3.38;;;0.65;;
81834;SDS011;71272;52.166;4.498;2023-07-20T10:19:44;3.67;;;0.75;;
81834;SDS011;71272;52.166;4.498;2023-07-20T10:22:17;2.63;;;0.60;;
81834;SDS011;71272;52.166;4.498;2023-07-20T10:24:46;2.05;;;0.57;;
81834;SDS011;71272;52.166;4.498;2023-07-20T10:27:13;3.10;;;0.88;;
81834;SDS011;71272;52.166;4.498;2023-07-20T10:29:39;1.55;;;0.60;;
81834;SDS011;71272;52.166;4.498;2023-07-20T10:32:06;1.48;;;0.60;;
81834;SDS011;71272;52.166;4.498;2023-07-20T10:34:33;1.30;;;0.50;;
81834;SDS011;71272;52.166;4.498;2023-07-20T10:36:58;1.77;;;0.47;;
81834;SDS011;71272;52.166;4.498;2023-07-20T10:39:24;0.93;;;0.50;;
81834;SDS011;71272;52.166;4.498;2023-07-20T10:42:03;1.38;;;0.50;;
81834;SDS011;71272;52.166;4.498;2023-07-20T10:47:00;1.27;;;0.55;;
81834;SDS011;71272;52.166;4.498;2023-07-20T10:49:33;2.85;;;0.52;;
81834;SDS011;71272;52.166;4.498;2023-07-20T10:52:00;1.10;;;0.50;;
81834;SDS011;71272;52.166;4.498;2023-07-20T10:56:56;1.83;;;0.70;;
81834;SDS011;71272;52.166;4.498;2023-07-20T11:01:51;1.67;;;0.85;;
81834;SDS011;71272;52.166;4.498;2023-07-20T11:04:21;1.63;;;0.60;;
81834;SDS011;71272;52.166;4.498;2023-07-20T11:07:05;3.90;;;0.65;;
81834;SDS011;71272;52.166;4.498;2023-07-20T11:09:34;2.70;;;0.68;;
81834;SDS011;71272;52.166;4.498;2023-07-20T11:12:10;1.90;;;0.80;;
81834;SDS011;71272;52.166;4.498;2023-07-20T11:14:40;3.33;;;1.40;;
81834;SDS011;71272;52.166;4.498;2023-07-20T11:17:11;1.05;;;0.60;;
81834;SDS011;71272;52.166;4.498;2023-07-20T11:19:40;2.85;;;0.75;;
81834;SDS011;71272;52.166;4.498;2023-07-20T11:22:06;3.42;;;0.68;;
81834;SDS011;71272;52.166;4.498;2023-07-20T11:24:33;1.95;;;0.50;;
81834;SDS011;71272;52.166;4.498;2023-07-20T11:26:58;1.08;;;0.47;;
81834;SDS011;71272;52.166;4.498;2023-07-20T11:29:25;1.42;;;0.50;;
81834;SDS011;71272;52.166;4.498;2023-07-20T11:31:51;4.18;;;0.70;;
81834;SDS011;71272;52.166;4.498;2023-07-20T11:34:17;1.25;;;0.47;;
81834;SDS011;71272;52.166;4.498;2023-07-20T11:36:45;2.05;;;0.40;;
81834;SDS011;71272;52.166;4.498;2023-07-20T11:39:13;1.65;;;0.60;;
81834;SDS011;71272;52.166;4.498;2023-07-20T11:41:43;1.48;;;0.43;;
81834;SDS011;71272;52.166;4.498;2023-07-20T11:44:11;1.08;;;0.57;;
81834;SDS011;71272;52.166;4.498;2023-07-20T11:46:40;2.15;;;0.60;;
81834;SDS011;71272;52.166;4.498;2023-07-20T11:49:07;2.80;;;0.70;;
81834;SDS011;71272;52.166;4.498;2023-07-20T11:51:33;1.17;;;0.55;;
81834;SDS011;71272;52.166;4.498;2023-07-20T11:54:00;1.73;;;0.73;;
81834;SDS011;71272;52.166;4.498;2023-07-20T11:56:26;1.73;;;0.60;;
81834;SDS011;71272;52.166;4.498;2023-07-20T11:58:55;2.53;;;0.57;;
81834;SDS011;71272;52.166;4.498;2023-07-20T12:01:24;1.23;;;0.60;;
81834;SDS011;71272;52.166;4.498;2023-07-20T12:03:53;1.33;;;0.80;;
81834;SDS011;71272;52.166;4.498;2023-07-20T12:06:22;4.47;;;0.68;;
81834;SDS011;71272;52.166;4.498;2023-07-20T12:08:49;1.13;;;0.57;;
81834;SDS011;71272;52.166;4.498;2023-07-20T12:11:14;1.67;;;0.70;;
81834;SDS011;71272;52.166;4.498;2023-07-20T12:13:57;1.00;;;0.60;;
81834;SDS011;71272;52.166;4.498;2023-07-20T12:16:26;0.82;;;0.60;;
81834;SDS011;71272;52.166;4.498;2023-07-20T12:18:58;1.13;;;0.60;;
81834;SDS011;71272;52.166;4.498;2023-07-20T12:21:31;1.67;;;0.63;;
81834;SDS011;71272;52.166;4.498;2023-07-20T12:23:58;1.38;;;0.32;;
81834;SDS011;71272;52.166;4.498;2023-07-20T12:26:24;1.10;;;0.50;;
81834;SDS011;71272;52.166;4.498;2023-07-20T12:28:50;1.67;;;0.50;;
81834;SDS011;71272;52.166;4.498;2023-07-20T12:31:16;2.00;;;0.70;;
81834;SDS011;71272;52.166;4.498;2023-07-20T12:33:42;0.98;;;0.77;;
81834;SDS011;71272;52.166;4.498;2023-07-20T12:36:08;1.30;;;0.57;;
81834;SDS011;71272;52.166;4.498;2023-07-20T12:38:34;1.48;;;0.60;;
81834;SDS011;71272;52.166;4.498;2023-07-20T12:41:00;1.15;;;0.50;;
81834;SDS011;71272;52.166;4.498;2023-07-20T12:45:51;1.47;;;0.53;;
81834;SDS011;71272;52.166;4.498;2023-07-20T12:48:17;1.13;;;0.52;;
81834;SDS011;71272;52.166;4.498;2023-07-20T12:50:42;1.52;;;0.65;;
81834;SDS011;71272;52.166;4.498;2023-07-20T12:53:07;2.23;;;0.83;;
81834;SDS011;71272;52.166;4.498;2023-07-20T12:55:33;2.15;;;0.73;;
81834;SDS011;71272;52.166;4.498;2023-07-20T12:57:58;0.70;;;0.40;;
81834;SDS011;71272;52.166;4.498;2023-07-20T13:00:24;1.55;;;0.60;;
81834;SDS011;71272;52.166;4.498;2023-07-20T13:02:49;4.18;;;0.80;;
81834;SDS011;71272;52.166;4.498;2023-07-20T13:05:15;1.52;;;0.70;;
81834;SDS011;71272;52.166;4.498;2023-07-20T13:07:41;0.68;;;0.45;;
81834;SDS011;71272;52.166;4.498;2023-07-20T13:10:07;3.92;;;0.70;;
81834;SDS011;71272;52.166;4.498;2023-07-20T13:12:34;1.13;;;0.60;;
81834;SDS011;71272;52.166;4.498;2023-07-20T13:15:07;2.03;;;0.70;;
81834;SDS011;71272;52.166;4.498;2023-07-20T13:17:34;5.00;;;0.70;;
81834;SDS011;71272;52.166;4.498;2023-07-20T13:20:00;1.88;;;0.75;;
81834;SDS011;71272;52.166;4.498;2023-07-20T13:22:27;1.10;;;0.60;;
81834;SDS011;71272;52.166;4.498;2023-07-20T13:24:53;0.87;;;0.60;;
81834;SDS011;71272;52.166;4.498;2023-07-20T13:27:19;1.77;;;0.70;;
81834;SDS011;71272;52.166;4.498;2023-07-20T13:29:44;0.65;;;0.50;;
81834;SDS011;71272;52.166;4.498;2023-07-20T13:34:38;2.03;;;0.63;;
81834;SDS011;71272;52.166;4.498;2023-07-20T13:37:03;4.47;;;0.70;;
81834;SDS011;71272;52.166;4.498;2023-07-20T13:39:29;0.88;;;0.50;;
81834;SDS011;71272;52.166;4.498;2023-07-20T13:41:55;0.75;;;0.50;;
81834;SDS011;71272;52.166;4.498;2023-07-20T13:44:20;1.42;;;0.70;;
81834;SDS011;71272;52.166;4.498;2023-07-20T13:46:49;0.57;;;0.30;;
81834;SDS011;71272;52.166;4.498;2023-07-20T13:49:15;3.10;;;0.50;;
81834;SDS011;71272;52.166;4.498;2023-07-20T13:51:43;1.50;;;0.55;;
81834;SDS011;71272;52.166;4.498;2023-07-20T13:54:09;4.13;;;0.68;;
81834;SDS011;71272;52.166;4.498;2023-07-20T13:56:34;2.17;;;0.60;;
81834;SDS011;71272;52.166;4.498;2023-07-20T13:59:00;1.15;;;0.60;;
81834;SDS011;71272;52.166;4.498;2023-07-20T14:01:26;2.30;;;0.65;;
81834;SDS011;71272;52.166;4.498;2023-07-20T14:03:53;1.42;;;0.65;;
81834;SDS011;71272;52.166;4.498;2023-07-20T14:06:19;0.68;;;0.35;;
81834;SDS011;71272;52.166;4.498;2023-07-20T14:08:44;1.27;;;0.60;;
81834;SDS011;71272;52.166;4.498;2023-07-20T14:11:12;1.73;;;0.70;;
81834;SDS011;71272;52.166;4.498;2023-07-20T14:13:37;1.05;;;0.50;;
81834;SDS011;71272;52.166;4.498;2023-07-20T14:16:03;1.92;;;0.70;;
81834;SDS011;71272;52.166;4.498;2023-07-20T14:18:28;4.45;;;0.60;;
81834;SDS011;71272;52.166;4.498;2023-07-20T14:20:54;2.60;;;0.70;;
81834;SDS011;71272;52.166;4.498;2023-07-20T14:23:19;0.85;;;0.45;;
81834;SDS011;71272;52.166;4.498;2023-07-20T14:25:44;1.60;;;0.60;;
81834;SDS011;71272;52.166;4.498;2023-07-20T14:28:10;1.67;;;0.70;;
81834;SDS011;71272;52.166;4.498;2023-07-20T14:30:35;0.82;;;0.50;;
81834;SDS011;71272;52.166;4.498;2023-07-20T14:33:00;0.93;;;0.70;;
81834;SDS011;71272;52.166;4.498;2023-07-20T14:35:26;2.20;;;0.70;;
81834;SDS011;71272;52.166;4.498;2023-07-20T14:37:51;1.70;;;0.88;;
81834;SDS011;71272;52.166;4.498;2023-07-20T14:40:17;2.50;;;1.05;;
81834;SDS011;71272;52.166;4.498;2023-07-20T14:42:43;1.70;;;0.85;;
81834;SDS011;71272;52.166;4.498;2023-07-20T14:45:08;1.13;;;0.50;;
81834;SDS011;71272;52.166;4.498;2023-07-20T14:47:34;1.88;;;0.60;;
81834;SDS011;71272;52.166;4.498;2023-07-20T14:50:00;3.70;;;0.88;;
81834;SDS011;71272;52.166;4.498;2023-07-20T14:52:28;1.85;;;0.82;;
81834;SDS011;71272;52.166;4.498;2023-07-20T14:54:54;1.90;;;1.40;;
81834;SDS011;71272;52.166;4.498;2023-07-20T14:57:20;2.38;;;0.52;;
81834;SDS011;71272;52.166;4.498;2023-07-20T14:59:47;3.53;;;0.90;;
81834;SDS011;71272;52.166;4.498;2023-07-20T15:02:13;1.58;;;0.60;;
81834;SDS011;71272;52.166;4.498;2023-07-20T15:04:45;1.20;;;0.65;;
81834;SDS011;71272;52.166;4.498;2023-07-20T15:07:11;1.85;;;0.60;;
81834;SDS011;71272;52.166;4.498;2023-07-20T15:09:36;2.40;;;0.80;;
81834;SDS011;71272;52.166;4.498;2023-07-20T15:12:02;3.57;;;0.73;;
81834;SDS011;71272;52.166;4.498;2023-07-20T15:14:27;1.55;;;0.55;;
81834;SDS011;71272;52.166;4.498;2023-07-20T15:16:53;1.10;;;0.50;;
81834;SDS011;71272;52.166;4.498;2023-07-20T15:19:18;3.03;;;1.00;;
81834;SDS011;71272;52.166;4.498;2023-07-20T15:21:43;2.07;;;0.60;;
81834;SDS011;71272;52.166;4.498;2023-07-20T15:24:09;1.92;;;0.70;;
81834;SDS011;71272;52.166;4.498;2023-07-20T15:26:34;1.77;;;0.87;;
81834;SDS011;71272;52.166;4.498;2023-07-20T15:29:00;1.90;;;0.60;;